Time;durP1;ratioP1;P1;durP2;ratioP2;P2;SDS_P1;SDS_P2;PMS_P1;PMS_P2;Temp;Humidity;BMP_temperature;BMP_pressure;BME280_temperature;BME280_humidity;BME280_pressure;Samples;Min_cycle;Max_cycle;Signal;HPM_P1;HPM_P2
2024/03/26 00:00:40;;;;;;;43.10;15.68;;;;;;;;;;5068720;28;20036;-44
2024/03/26 00:03:07;;;;;;;46.38;15.30;;;;;;;;;;5063204;28;20048;-43
2024/03/26 00:05:34;;;;;;;42.75;12.77;;;;;;;;;;5068132;28;20531;-44
2024/03/26 00:08:01;;;;;;;50.10;14.63;;;;;;;;;;5069611;28;20082;-44
2024/03/26 00:10:29;;;;;;;31.90;11.45;;;;;;;;;;5068852;28;20036;-44
2024/03/26 00:12:56;;;;;;;49.45;11.60;;;;;;;;;;5073066;28;20029;-45
2024/03/26 00:15:23;;;;;;;35.92;10.68;;;;;;;;;;5073253;28;20028;-45
2024/03/26 00:17:50;;;;;;;38.85;11.40;;;;;;;;;;5073658;28;20041;-43
2024/03/26 00:20:17;;;;;;;25.80;9.23;;;;;;;;;;5065956;28;20028;-44
2024/03/26 00:22:44;;;;;;;37.90;10.63;;;;;;;;;;5074077;28;20032;-44
2024/03/26 00:25:11;;;;;;;30.83;8.20;;;;;;;;;;5074438;28;20040;-43
2024/03/26 00:27:38;;;;;;;25.95;7.60;;;;;;;;;;5070101;28;20039;-45
2024/03/26 00:30:06;;;;;;;23.02;7.25;;;;;;;;;;5057336;28;20048;-44
2024/03/26 00:32:33;;;;;;;22.35;7.97;;;;;;;;;;5065072;28;20029;-43
2024/03/26 00:35:00;;;;;;;21.85;6.95;;;;;;;;;;5069771;28;20027;-43
2024/03/26 00:37:27;;;;;;;22.10;7.82;;;;;;;;;;5071078;28;20042;-43
2024/03/26 00:39:54;;;;;;;29.90;7.25;;;;;;;;;;5068401;28;20028;-43
2024/03/26 00:42:21;;;;;;;24.77;7.00;;;;;;;;;;5070657;28;20040;-44
2024/03/26 00:44:48;;;;;;;20.23;6.80;;;;;;;;;;5067192;28;20043;-43
2024/03/26 00:47:15;;;;;;;19.45;6.35;;;;;;;;;;5070125;28;20475;-45
2024/03/26 00:49:42;;;;;;;18.88;5.57;;;;;;;;;;5065510;28;20029;-43
2024/03/26 00:52:09;;;;;;;16.67;5.40;;;;;;;;;;5073338;28;20032;-44
2024/03/26 00:54:36;;;;;;;19.38;5.47;;;;;;;;;;5072650;28;20049;-43
2024/03/26 00:57:02;;;;;;;18.80;5.55;;;;;;;;;;5070292;28;20356;-43
2024/03/26 00:59:30;;;;;;;14.75;5.00;;;;;;;;;;5061034;28;20036;-47
2024/03/26 01:01:56;;;;;;;16.95;5.50;;;;;;;;;;5058093;28;20032;-43
2024/03/26 01:04:23;;;;;;;19.42;5.13;;;;;;;;;;5056901;28;20029;-43
2024/03/26 01:06:50;;;;;;;22.75;5.18;;;;;;;;;;5064704;28;20028;-43
2024/03/26 01:09:18;;;;;;;21.27;5.28;;;;;;;;;;5065502;28;20033;-43
2024/03/26 01:11:46;;;;;;;14.85;4.45;;;;;;;;;;5069247;28;20078;-42
2024/03/26 01:14:13;;;;;;;34.92;4.40;;;;;;;;;;5068708;28;20036;-44
2024/03/26 01:16:40;;;;;;;20.58;4.38;;;;;;;;;;5070841;28;20098;-42
2024/03/26 01:19:07;;;;;;;20.83;4.55;;;;;;;;;;5071328;28;20036;-42
2024/03/26 01:21:34;;;;;;;15.73;3.85;;;;;;;;;;5063005;28;20182;-41
2024/03/26 01:24:01;;;;;;;15.82;4.15;;;;;;;;;;5072653;28;20108;-43
2024/03/26 01:26:28;;;;;;;14.00;4.03;;;;;;;;;;5072157;28;20044;-42
2024/03/26 01:28:55;;;;;;;17.73;4.03;;;;;;;;;;5061486;28;20028;-44
2024/03/26 01:31:22;;;;;;;13.18;4.20;;;;;;;;;;5073103;28;20087;-45
2024/03/26 01:33:49;;;;;;;19.55;4.10;;;;;;;;;;5071672;28;20048;-46
2024/03/26 01:36:16;;;;;;;16.23;3.80;;;;;;;;;;5072863;28;20025;-43
2024/03/26 01:38:43;;;;;;;25.20;4.07;;;;;;;;;;5072622;28;20075;-44
2024/03/26 01:41:10;;;;;;;16.67;3.60;;;;;;;;;;5067016;28;20119;-45
2024/03/26 01:43:37;;;;;;;18.55;3.83;;;;;;;;;;5073598;28;20036;-49
2024/03/26 01:46:04;;;;;;;12.00;3.20;;;;;;;;;;5091452;28;20028;-49
2024/03/26 01:48:31;;;;;;;17.25;3.33;;;;;;;;;;5093089;28;20032;-44
2024/03/26 01:50:58;;;;;;;10.02;2.97;;;;;;;;;;5077929;28;20032;-46
2024/03/26 01:53:25;;;;;;;12.65;2.45;;;;;;;;;;5071058;28;20394;-44
2024/03/26 01:55:53;;;;;;;14.05;2.80;;;;;;;;;;5072264;28;20056;-47
2024/03/26 01:58:19;;;;;;;13.27;2.55;;;;;;;;;;5072753;28;20513;-42
2024/03/26 02:00:47;;;;;;;8.68;2.47;;;;;;;;;;5072587;28;20024;-44
2024/03/26 02:03:14;;;;;;;14.95;2.65;;;;;;;;;;5072005;28;20121;-45
2024/03/26 02:05:41;;;;;;;12.02;2.38;;;;;;;;;;5072324;28;20037;-47
2024/03/26 02:08:08;;;;;;;14.40;2.30;;;;;;;;;;5075586;28;20041;-43
2024/03/26 02:10:35;;;;;;;14.10;2.50;;;;;;;;;;5072256;28;20040;-43
2024/03/26 02:13:03;;;;;;;9.00;2.00;;;;;;;;;;5073145;28;20767;-48
2024/03/26 02:15:30;;;;;;;13.85;2.10;;;;;;;;;;5070492;28;20028;-42
2024/03/26 02:17:57;;;;;;;11.07;1.60;;;;;;;;;;5078325;28;20031;-43
2024/03/26 02:20:24;;;;;;;12.90;2.22;;;;;;;;;;5079408;28;20025;-47
2024/03/26 02:23:00;;;;;;;9.77;1.83;;;;;;;;;;5071180;28;20126;-43
2024/03/26 02:25:27;;;;;;;12.52;1.70;;;;;;;;;;5069795;28;20029;-43
2024/03/26 02:27:54;;;;;;;7.35;1.67;;;;;;;;;;5072033;28;20025;-42
2024/03/26 02:30:21;;;;;;;11.93;1.10;;;;;;;;;;5071145;28;20052;-42
2024/03/26 02:32:48;;;;;;;7.47;1.55;;;;;;;;;;5068677;28;20410;-44
2024/03/26 02:35:15;;;;;;;3.33;1.05;;;;;;;;;;5072096;28;20153;-43
2024/03/26 02:37:42;;;;;;;6.03;1.27;;;;;;;;;;5072265;28;20028;-44
2024/03/26 02:40:09;;;;;;;6.93;1.08;;;;;;;;;;5072259;28;20059;-45
2024/03/26 02:42:36;;;;;;;5.38;1.25;;;;;;;;;;5072062;28;20024;-44
2024/03/26 02:45:04;;;;;;;3.95;1.15;;;;;;;;;;5072154;28;20029;-44
2024/03/26 02:47:31;;;;;;;7.75;1.23;;;;;;;;;;5071882;28;20082;-44
2024/03/26 02:49:58;;;;;;;4.20;0.95;;;;;;;;;;5071429;28;20016;-44
2024/03/26 02:52:25;;;;;;;6.63;1.50;;;;;;;;;;5070843;28;20139;-43
2024/03/26 02:54:52;;;;;;;3.42;1.08;;;;;;;;;;5070811;28;20085;-43
2024/03/26 02:57:19;;;;;;;3.78;0.80;;;;;;;;;;5071418;28;20103;-44
2024/03/26 02:59:46;;;;;;;3.28;0.98;;;;;;;;;;5071149;28;20387;-44
2024/03/26 03:02:13;;;;;;;5.53;1.00;;;;;;;;;;5071251;28;20031;-44
2024/03/26 03:04:39;;;;;;;3.45;1.25;;;;;;;;;;5071244;28;20055;-44
2024/03/26 03:07:06;;;;;;;5.28;1.00;;;;;;;;;;5071666;28;20355;-44
2024/03/26 03:09:33;;;;;;;2.03;0.77;;;;;;;;;;5071717;28;20116;-44
2024/03/26 03:12:00;;;;;;;5.38;0.80;;;;;;;;;;5071800;28;20436;-46
2024/03/26 03:14:28;;;;;;;3.53;1.10;;;;;;;;;;5071650;28;20028;-44
2024/03/26 03:16:55;;;;;;;4.15;1.00;;;;;;;;;;5071615;28;20041;-43
2024/03/26 03:19:25;;;;;;;2.45;0.93;;;;;;;;;;5071700;28;20032;-44
2024/03/26 03:21:52;;;;;;;2.42;0.98;;;;;;;;;;5071575;28;20052;-44
2024/03/26 03:24:19;;;;;;;2.85;0.95;;;;;;;;;;5071401;28;20035;-44
2024/03/26 03:26:46;;;;;;;2.40;0.82;;;;;;;;;;5071563;28;20036;-44
2024/03/26 03:29:13;;;;;;;4.05;0.80;;;;;;;;;;5071486;28;20039;-44
2024/03/26 03:31:40;;;;;;;3.13;0.80;;;;;;;;;;5071478;28;20032;-44
2024/03/26 03:34:07;;;;;;;3.60;0.80;;;;;;;;;;5071513;28;20493;-44
2024/03/26 03:36:34;;;;;;;1.92;0.82;;;;;;;;;;5071459;28;20394;-44
2024/03/26 03:39:01;;;;;;;4.57;1.08;;;;;;;;;;5071360;28;20401;-45
2024/03/26 03:41:28;;;;;;;4.75;0.77;;;;;;;;;;5071325;28;20048;-44
2024/03/26 03:43:55;;;;;;;3.85;0.75;;;;;;;;;;5071506;28;20032;-43
2024/03/26 03:46:22;;;;;;;3.80;0.80;;;;;;;;;;5071386;28;20021;-44
2024/03/26 03:48:49;;;;;;;3.63;0.75;;;;;;;;;;5071455;28;20028;-43
2024/03/26 03:51:15;;;;;;;2.85;0.60;;;;;;;;;;5071079;28;20033;-44
2024/03/26 03:53:42;;;;;;;2.20;0.63;;;;;;;;;;5071202;28;20404;-44
2024/03/26 03:56:09;;;;;;;2.38;0.70;;;;;;;;;;5071098;28;20048;-44
2024/03/26 03:58:36;;;;;;;2.80;0.60;;;;;;;;;;5071342;28;20097;-43
2024/03/26 04:01:03;;;;;;;3.08;0.82;;;;;;;;;;5071184;28;20024;-44
2024/03/26 04:03:30;;;;;;;2.22;0.70;;;;;;;;;;5071178;28;20032;-45
2024/03/26 04:05:57;;;;;;;1.83;0.70;;;;;;;;;;5071148;28;20033;-44
2024/03/26 04:08:24;;;;;;;2.72;0.80;;;;;;;;;;5071162;28;20017;-44
2024/03/26 04:10:51;;;;;;;3.70;0.95;;;;;;;;;;5071054;28;20034;-46
2024/03/26 04:13:18;;;;;;;3.40;0.80;;;;;;;;;;5071047;28;20080;-43
2024/03/26 04:15:45;;;;;;;9.77;1.20;;;;;;;;;;5071146;28;20021;-43
2024/03/26 04:18:12;;;;;;;3.67;0.88;;;;;;;;;;5071037;28;20067;-43
2024/03/26 04:20:39;;;;;;;3.65;0.60;;;;;;;;;;5071020;28;20063;-44
2024/03/26 04:23:06;;;;;;;2.00;0.65;;;;;;;;;;5071075;28;20025;-44
2024/03/26 04:25:33;;;;;;;4.03;1.00;;;;;;;;;;5071063;28;20040;-43
2024/03/26 04:28:00;;;;;;;2.38;0.65;;;;;;;;;;5070992;28;20112;-44
2024/03/26 04:30:27;;;;;;;5.22;0.80;;;;;;;;;;5070880;28;20020;-43
2024/03/26 04:32:54;;;;;;;2.70;0.70;;;;;;;;;;5070784;28;20024;-44
2024/03/26 04:35:21;;;;;;;2.65;0.77;;;;;;;;;;5071165;28;20482;-44
2024/03/26 04:37:48;;;;;;;6.50;0.70;;;;;;;;;;5074850;28;20394;-44
2024/03/26 04:40:15;;;;;;;3.25;0.60;;;;;;;;;;5074382;28;20031;-43
2024/03/26 04:42:42;;;;;;;1.73;0.52;;;;;;;;;;5074507;28;20055;-44
2024/03/26 04:45:09;;;;;;;2.35;0.60;;;;;;;;;;5074454;28;20094;-44
2024/03/26 04:47:36;;;;;;;2.33;0.60;;;;;;;;;;5074562;28;20027;-43
2024/03/26 04:50:03;;;;;;;2.67;0.63;;;;;;;;;;5074314;28;20125;-44
2024/03/26 04:52:30;;;;;;;2.13;0.57;;;;;;;;;;5074282;28;20037;-44
2024/03/26 04:54:57;;;;;;;2.20;0.70;;;;;;;;;;5074027;28;20028;-44
2024/03/26 04:57:24;;;;;;;1.65;0.70;;;;;;;;;;5074196;28;20036;-44
2024/03/26 04:59:50;;;;;;;2.03;0.70;;;;;;;;;;5074138;28;20456;-44
2024/03/26 05:02:17;;;;;;;2.00;0.52;;;;;;;;;;5074222;28;20063;-43
2024/03/26 05:04:44;;;;;;;2.83;0.60;;;;;;;;;;5074135;28;20032;-45
2024/03/26 05:07:11;;;;;;;2.17;0.55;;;;;;;;;;5074176;28;20364;-44
2024/03/26 05:09:38;;;;;;;3.40;0.80;;;;;;;;;;5073857;28;20094;-43
2024/03/26 05:12:05;;;;;;;3.22;0.60;;;;;;;;;;5073815;28;20028;-43
2024/03/26 05:14:32;;;;;;;1.98;0.73;;;;;;;;;;5073875;28;20068;-45
2024/03/26 05:16:59;;;;;;;3.60;0.70;;;;;;;;;;5073950;28;20054;-43
2024/03/26 05:19:26;;;;;;;3.47;0.77;;;;;;;;;;5073822;28;20028;-44
2024/03/26 05:21:53;;;;;;;1.70;0.70;;;;;;;;;;5073791;28;20037;-44
2024/03/26 05:24:20;;;;;;;1.95;0.63;;;;;;;;;;5073687;28;20101;-43
2024/03/26 05:26:47;;;;;;;6.28;0.60;;;;;;;;;;5073798;28;20060;-44
2024/03/26 05:29:16;;;;;;;2.33;0.60;;;;;;;;;;5073668;28;20449;-44
2024/03/26 05:31:43;;;;;;;3.97;0.60;;;;;;;;;;5073456;28;20025;-43
2024/03/26 05:34:10;;;;;;;6.07;0.80;;;;;;;;;;5073392;28;20538;-43
2024/03/26 05:36:36;;;;;;;1.85;0.60;;;;;;;;;;5073477;28;20387;-43
2024/03/26 05:39:03;;;;;;;4.10;0.50;;;;;;;;;;5073400;28;20033;-44
2024/03/26 05:41:31;;;;;;;5.00;0.60;;;;;;;;;;5073345;28;20062;-44
2024/03/26 05:43:58;;;;;;;3.05;0.70;;;;;;;;;;5073319;28;20056;-43
2024/03/26 05:46:25;;;;;;;3.55;0.60;;;;;;;;;;5073428;28;20118;-44
2024/03/26 05:48:52;;;;;;;1.83;0.50;;;;;;;;;;5073232;28;20071;-44
2024/03/26 05:51:19;;;;;;;4.72;0.80;;;;;;;;;;5073053;28;20103;-44
2024/03/26 05:53:46;;;;;;;2.50;0.60;;;;;;;;;;5073367;28;20035;-45
2024/03/26 05:56:13;;;;;;;1.50;0.50;;;;;;;;;;5072578;28;20048;-43
2024/03/26 05:58:40;;;;;;;7.45;1.08;;;;;;;;;;5073053;28;20107;-44
2024/03/26 06:01:08;;;;;;;1.30;0.38;;;;;;;;;;5071587;28;20032;-43
2024/03/26 06:03:36;;;;;;;2.42;0.80;;;;;;;;;;5072764;28;20044;-44
2024/03/26 06:06:04;;;;;;;2.92;0.70;;;;;;;;;;5072956;28;20033;-44
2024/03/26 06:08:31;;;;;;;2.00;0.70;;;;;;;;;;5072997;28;20028;-44
2024/03/26 06:10:58;;;;;;;2.30;0.60;;;;;;;;;;5072651;28;20490;-44
2024/03/26 06:13:25;;;;;;;3.88;0.77;;;;;;;;;;5072670;28;20090;-43
2024/03/26 06:16:02;;;;;;;4.95;0.73;;;;;;;;;;5072794;28;20364;-44
2024/03/26 06:18:28;;;;;;;5.07;0.65;;;;;;;;;;5072752;28;20025;-43
2024/03/26 06:20:55;;;;;;;1.83;0.70;;;;;;;;;;5072604;28;20033;-44
2024/03/26 06:23:22;;;;;;;1.48;0.50;;;;;;;;;;5072602;28;20381;-44
2024/03/26 06:25:49;;;;;;;5.72;0.70;;;;;;;;;;5072581;28;20020;-44
2024/03/26 06:28:16;;;;;;;2.55;0.68;;;;;;;;;;5072571;28;20123;-44
2024/03/26 06:30:43;;;;;;;1.83;0.60;;;;;;;;;;5072430;28;20114;-44
2024/03/26 06:33:11;;;;;;;1.88;0.55;;;;;;;;;;5072371;28;20082;-43
2024/03/26 06:35:39;;;;;;;3.05;0.80;;;;;;;;;;5072313;28;20039;-44
2024/03/26 06:38:06;;;;;;;4.10;0.90;;;;;;;;;;5072104;28;20032;-43
2024/03/26 06:40:33;;;;;;;2.95;0.63;;;;;;;;;;5072157;28;20028;-44
2024/03/26 06:43:00;;;;;;;3.38;0.80;;;;;;;;;;5072240;28;20028;-43
2024/03/26 06:45:27;;;;;;;3.03;0.63;;;;;;;;;;5072216;28;20036;-44
2024/03/26 06:47:54;;;;;;;4.35;0.85;;;;;;;;;;5072063;28;20032;-44
2024/03/26 06:50:21;;;;;;;4.07;0.82;;;;;;;;;;5072100;28;20036;-44
2024/03/26 06:52:51;;;;;;;2.95;0.70;;;;;;;;;;5071977;28;20036;-44
2024/03/26 06:55:18;;;;;;;2.63;0.65;;;;;;;;;;5071865;28;20059;-44
2024/03/26 06:57:48;;;;;;;2.67;0.60;;;;;;;;;;5071745;28;20049;-44
2024/03/26 07:00:15;;;;;;;2.63;0.50;;;;;;;;;;5071470;28;20031;-44
2024/03/26 07:02:42;;;;;;;2.58;0.90;;;;;;;;;;5053963;28;20028;-44
2024/03/26 07:05:13;;;;;;;4.20;0.90;;;;;;;;;;5071871;28;20025;-43
2024/03/26 07:07:40;;;;;;;1.88;0.60;;;;;;;;;;5071789;28;20024;-43
2024/03/26 07:10:07;;;;;;;2.22;0.60;;;;;;;;;;5071724;28;20035;-44
2024/03/26 07:12:34;;;;;;;1.48;0.63;;;;;;;;;;5071877;28;20493;-44
2024/03/26 07:15:02;;;;;;;2.25;0.60;;;;;;;;;;5071647;28;20033;-44
2024/03/26 07:17:29;;;;;;;2.03;0.55;;;;;;;;;;5071820;28;20482;-44
2024/03/26 07:19:56;;;;;;;1.35;0.60;;;;;;;;;;5071533;28;20029;-44
2024/03/26 07:22:24;;;;;;;3.67;0.90;;;;;;;;;;5071729;28;20024;-44
2024/03/26 07:24:51;;;;;;;4.43;0.65;;;;;;;;;;5071413;28;20559;-43
2024/03/26 07:27:18;;;;;;;1.95;0.70;;;;;;;;;;5071627;28;20024;-44
2024/03/26 07:29:47;;;;;;;2.35;0.85;;;;;;;;;;5071406;28;20040;-44
2024/03/26 07:32:14;;;;;;;2.80;0.70;;;;;;;;;;5071565;28;20037;-44
2024/03/26 07:34:41;;;;;;;2.47;0.98;;;;;;;;;;5071339;28;20075;-44
2024/03/26 07:37:08;;;;;;;2.67;0.55;;;;;;;;;;5071390;28;20058;-45
2024/03/26 07:39:36;;;;;;;2.17;0.52;;;;;;;;;;5071191;28;20044;-43
2024/03/26 07:42:03;;;;;;;5.75;1.10;;;;;;;;;;5071393;28;20048;-46
2024/03/26 07:44:30;;;;;;;2.67;0.82;;;;;;;;;;5071361;28;20364;-44
2024/03/26 07:46:58;;;;;;;2.67;0.57;;;;;;;;;;5071484;28;20090;-44
2024/03/26 07:49:25;;;;;;;3.03;0.80;;;;;;;;;;5071182;28;21014;-44
2024/03/26 07:51:53;;;;;;;4.18;0.90;;;;;;;;;;5071411;28;20581;-44
2024/03/26 07:54:22;;;;;;;1.75;0.70;;;;;;;;;;5071349;28;20028;-44
2024/03/26 07:56:49;;;;;;;2.22;0.73;;;;;;;;;;5071147;28;20078;-44
2024/03/26 07:59:16;;;;;;;5.32;0.90;;;;;;;;;;5071232;28;20021;-44
2024/03/26 08:01:43;;;;;;;2.63;0.70;;;;;;;;;;5071308;28;20443;-45
2024/03/26 08:04:10;;;;;;;2.35;0.63;;;;;;;;;;5071357;28;20491;-43
2024/03/26 08:06:37;;;;;;;2.03;0.60;;;;;;;;;;5071282;28;20078;-44
2024/03/26 08:09:03;;;;;;;1.35;0.60;;;;;;;;;;5071088;28;20398;-43
2024/03/26 08:11:30;;;;;;;3.08;1.10;;;;;;;;;;5073383;28;20028;-44
2024/03/26 08:13:57;;;;;;;2.35;0.85;;;;;;;;;;5075060;28;20033;-45
2024/03/26 08:16:24;;;;;;;1.23;0.57;;;;;;;;;;5075091;28;20036;-43
2024/03/26 08:18:51;;;;;;;2.42;0.80;;;;;;;;;;5075197;28;20047;-43
2024/03/26 08:21:18;;;;;;;5.05;0.73;;;;;;;;;;5074904;28;20421;-45
2024/03/26 08:23:45;;;;;;;4.18;0.70;;;;;;;;;;5074896;28;20110;-43
2024/03/26 08:26:12;;;;;;;3.58;0.80;;;;;;;;;;5074843;28;20103;-44
2024/03/26 08:28:39;;;;;;;5.90;0.70;;;;;;;;;;5075088;28;20391;-43
2024/03/26 08:31:07;;;;;;;2.90;0.85;;;;;;;;;;5074765;28;20033;-43
2024/03/26 08:33:34;;;;;;;4.03;0.82;;;;;;;;;;5074682;28;20052;-43
2024/03/26 08:36:04;;;;;;;3.38;0.73;;;;;;;;;;5074675;28;20028;-46
2024/03/26 08:38:34;;;;;;;2.72;1.00;;;;;;;;;;5074664;28;20033;-44
2024/03/26 08:41:01;;;;;;;3.72;1.05;;;;;;;;;;5074534;28;20071;-44
2024/03/26 08:43:28;;;;;;;2.00;0.90;;;;;;;;;;5074540;28;20029;-44
2024/03/26 08:45:56;;;;;;;2.50;0.75;;;;;;;;;;5074333;28;20368;-44
2024/03/26 08:48:22;;;;;;;3.05;0.52;;;;;;;;;;5074411;28;20463;-44
2024/03/26 08:50:49;;;;;;;2.08;0.75;;;;;;;;;;5074471;28;20066;-45
2024/03/26 08:53:16;;;;;;;4.65;0.90;;;;;;;;;;5074271;28;20037;-44
2024/03/26 08:55:44;;;;;;;4.30;0.90;;;;;;;;;;5074131;28;20213;-43
2024/03/26 08:58:11;;;;;;;3.85;1.10;;;;;;;;;;5074315;28;20068;-44
2024/03/26 09:00:38;;;;;;;2.47;0.60;;;;;;;;;;5073829;28;20033;-43
2024/03/26 09:03:05;;;;;;;5.15;0.93;;;;;;;;;;5073489;28;20025;-44
2024/03/26 09:05:32;;;;;;;6.13;1.20;;;;;;;;;;5070795;28;20025;-44
2024/03/26 09:07:59;;;;;;;5.28;0.88;;;;;;;;;;5073450;28;20071;-44
2024/03/26 09:10:26;;;;;;;3.05;0.88;;;;;;;;;;5073369;28;20028;-44
2024/03/26 09:12:53;;;;;;;4.07;1.10;;;;;;;;;;5073845;28;20020;-45
2024/03/26 09:15:20;;;;;;;3.08;0.95;;;;;;;;;;5074012;28;20054;-45
2024/03/26 09:17:49;;;;;;;5.95;0.95;;;;;;;;;;5073953;28;20028;-42
2024/03/26 09:20:16;;;;;;;3.15;0.90;;;;;;;;;;5073697;28;20028;-43
2024/03/26 09:22:43;;;;;;;4.00;0.93;;;;;;;;;;5073447;28;20035;-43
2024/03/26 09:25:10;;;;;;;4.60;1.02;;;;;;;;;;5084320;28;20063;-44
2024/03/26 09:27:37;;;;;;;4.55;1.05;;;;;;;;;;5093989;28;20020;-44
2024/03/26 09:30:04;;;;;;;6.68;1.02;;;;;;;;;;5093427;28;20655;-44
2024/03/26 09:32:31;;;;;;;4.38;1.00;;;;;;;;;;5073670;28;20511;-43
2024/03/26 09:34:58;;;;;;;5.20;1.40;;;;;;;;;;5073317;28;20037;-43
2024/03/26 09:37:25;;;;;;;2.67;1.10;;;;;;;;;;5073591;28;20028;-44
2024/03/26 09:39:52;;;;;;;3.28;1.15;;;;;;;;;;5073133;28;20039;-43
2024/03/26 09:42:19;;;;;;;5.88;1.00;;;;;;;;;;5075655;28;20089;-43
2024/03/26 09:44:46;;;;;;;5.07;1.02;;;;;;;;;;5077675;28;20471;-44
2024/03/26 09:47:13;;;;;;;5.43;1.08;;;;;;;;;;5072967;28;20115;-43
2024/03/26 09:49:40;;;;;;;5.80;1.20;;;;;;;;;;5072477;28;20028;-43
2024/03/26 09:52:09;;;;;;;2.97;1.05;;;;;;;;;;5073029;28;20028;-44
2024/03/26 09:54:36;;;;;;;2.95;0.98;;;;;;;;;;5072953;28;20090;-43
2024/03/26 09:57:03;;;;;;;6.53;1.40;;;;;;;;;;5072740;28;20076;-44
2024/03/26 09:59:30;;;;;;;3.13;1.20;;;;;;;;;;5073230;28;20071;-43
2024/03/26 10:02:05;;;;;;;7.93;1.25;;;;;;;;;;5072333;28;20044;-43
2024/03/26 10:04:32;;;;;;;6.85;1.27;;;;;;;;;;5070449;28;20043;-44
2024/03/26 10:06:59;;;;;;;5.70;1.23;;;;;;;;;;5073185;28;20382;-44
2024/03/26 10:09:26;;;;;;;4.43;1.10;;;;;;;;;;5072970;28;20025;-42
2024/03/26 10:11:53;;;;;;;9.50;1.70;;;;;;;;;;5072554;28;20116;-43
2024/03/26 10:14:20;;;;;;;6.00;1.25;;;;;;;;;;5072690;28;20031;-43
2024/03/26 10:16:47;;;;;;;10.05;1.48;;;;;;;;;;5072141;28;20036;-43
2024/03/26 10:19:14;;;;;;;7.00;1.45;;;;;;;;;;5072063;28;20162;-43
2024/03/26 10:21:47;;;;;;;5.18;1.60;;;;;;;;;;5072401;28;20044;-43
2024/03/26 10:24:15;;;;;;;11.55;1.40;;;;;;;;;;5072609;28;20541;-43
2024/03/26 10:26:42;;;;;;;7.93;1.95;;;;;;;;;;5071932;28;20112;-43
2024/03/26 10:29:09;;;;;;;12.63;1.88;;;;;;;;;;5071713;28;20032;-43
2024/03/26 10:31:36;;;;;;;10.25;1.70;;;;;;;;;;5071868;28;20024;-44
2024/03/26 10:34:04;;;;;;;7.88;1.35;;;;;;;;;;5070778;28;20040;-43
2024/03/26 10:36:32;;;;;;;5.47;1.38;;;;;;;;;;5071796;28;20556;-43
2024/03/26 10:39:00;;;;;;;7.43;1.40;;;;;;;;;;5072272;28;20028;-43
2024/03/26 10:41:31;;;;;;;5.07;1.33;;;;;;;;;;5054407;28;20109;-43
2024/03/26 10:43:59;;;;;;;4.55;1.58;;;;;;;;;;5071745;28;20040;-43
2024/03/26 10:46:26;;;;;;;4.43;1.42;;;;;;;;;;5072087;28;20040;-43
2024/03/26 10:48:53;;;;;;;6.10;1.30;;;;;;;;;;5071890;28;20059;-43
2024/03/26 10:51:21;;;;;;;10.75;1.27;;;;;;;;;;5072117;28;20052;-42
2024/03/26 10:53:48;;;;;;;4.30;1.40;;;;;;;;;;5071979;28;20048;-43
2024/03/26 10:56:16;;;;;;;3.35;1.33;;;;;;;;;;5071836;28;20659;-43
2024/03/26 10:58:43;;;;;;;7.25;1.50;;;;;;;;;;5071971;28;20375;-44
2024/03/26 11:01:10;;;;;;;8.20;1.60;;;;;;;;;;5071979;28;20040;-43
2024/03/26 11:03:37;;;;;;;7.60;1.67;;;;;;;;;;5071858;28;20036;-43
2024/03/26 11:06:04;;;;;;;5.03;1.33;;;;;;;;;;5071544;28;20110;-43
2024/03/26 11:08:40;;;;;;;6.78;1.55;;;;;;;;;;5071181;28;20041;-43
2024/03/26 11:11:07;;;;;;;19.17;2.03;;;;;;;;;;5071393;28;20082;-40
2024/03/26 11:13:35;;;;;;;21.73;2.45;;;;;;;;;;5071116;28;20437;-42
2024/03/26 11:16:03;;;;;;;18.88;2.45;;;;;;;;;;5071190;28;20028;-42
2024/03/26 11:18:32;;;;;;;13.13;2.05;;;;;;;;;;5070991;28;20104;-43
2024/03/26 11:21:05;;;;;;;11.70;2.42;;;;;;;;;;5071138;28;20052;-42
2024/03/26 11:23:33;;;;;;;21.45;2.38;;;;;;;;;;5071553;28;20029;-42
2024/03/26 11:26:00;;;;;;;16.17;2.08;;;;;;;;;;5071433;28;20021;-43
2024/03/26 11:28:31;;;;;;;12.70;2.40;;;;;;;;;;5071644;28;20568;-43
2024/03/26 11:30:59;;;;;;;13.20;2.60;;;;;;;;;;5071505;28;20048;-42
2024/03/26 11:33:33;;;;;;;14.88;2.60;;;;;;;;;;5071407;28;20067;-43
2024/03/26 11:36:03;;;;;;;112.70;6.70;;;;;;;;;;5065952;28;20483;-34
2024/03/26 11:38:31;;;;;;;26.08;2.85;;;;;;;;;;5071166;28;20119;-36
2024/03/26 11:40:58;;;;;;;12.00;2.38;;;;;;;;;;5069684;28;20032;-34
2024/03/26 11:43:25;;;;;;;17.77;2.67;;;;;;;;;;5071237;28;20100;-34
2024/03/26 11:45:52;;;;;;;74.68;6.47;;;;;;;;;;5075734;28;20065;-35
2024/03/26 11:48:20;;;;;;;43.83;4.20;;;;;;;;;;5077582;28;20039;-33
2024/03/26 11:50:47;;;;;;;24.05;3.58;;;;;;;;;;5076266;28;20036;-35
2024/03/26 11:53:14;;;;;;;50.42;5.65;;;;;;;;;;5077894;28;20106;-34
2024/03/26 11:55:42;;;;;;;33.38;4.28;;;;;;;;;;5077376;28;20055;-33
2024/03/26 11:58:09;;;;;;;23.70;3.65;;;;;;;;;;5078027;28;20024;-34
2024/03/26 12:00:36;;;;;;;14.93;2.80;;;;;;;;;;5075732;28;20177;-33
2024/03/26 12:03:03;;;;;;;13.82;2.30;;;;;;;;;;5077801;28;20067;-34
2024/03/26 12:05:30;;;;;;;12.02;2.25;;;;;;;;;;5077847;28;20052;-34
2024/03/26 12:07:57;;;;;;;13.45;2.25;;;;;;;;;;5077720;28;20478;-33
2024/03/26 12:10:24;;;;;;;10.02;2.67;;;;;;;;;;5077822;28;20557;-34
2024/03/26 12:12:54;;;;;;;7.47;2.17;;;;;;;;;;5077846;28;20038;-33
2024/03/26 12:15:21;;;;;;;12.55;2.78;;;;;;;;;;5078006;28;20501;-33
2024/03/26 12:17:48;;;;;;;47.33;3.92;;;;;;;;;;5077904;28;20020;-33
2024/03/26 12:20:16;;;;;;;28.75;2.83;;;;;;;;;;5077667;28;20478;-31
2024/03/26 12:22:43;;;;;;;45.42;5.57;;;;;;;;;;5077797;28;20069;-33
2024/03/26 12:25:10;;;;;;;62.33;5.60;;;;;;;;;;5077736;28;20562;-32
2024/03/26 12:27:41;;;;;;;34.08;4.47;;;;;;;;;;5078030;28;20375;-32
2024/03/26 12:30:12;;;;;;;30.10;3.58;;;;;;;;;;5077640;28;20207;-32
2024/03/26 12:32:39;;;;;;;20.20;2.83;;;;;;;;;;5077521;28;20110;-32
2024/03/26 12:35:06;;;;;;;18.40;2.80;;;;;;;;;;5077671;28;20059;-33
2024/03/26 12:37:33;;;;;;;17.00;2.22;;;;;;;;;;5077645;28;20099;-32
2024/03/26 12:40:00;;;;;;;12.55;2.30;;;;;;;;;;5077587;28;20032;-32
2024/03/26 12:42:27;;;;;;;12.15;2.33;;;;;;;;;;5077612;28;20063;-32
2024/03/26 12:44:54;;;;;;;14.38;2.40;;;;;;;;;;5077481;28;20029;-33
2024/03/26 12:47:21;;;;;;;7.72;1.98;;;;;;;;;;5077592;28;20028;-32
2024/03/26 12:49:51;;;;;;;12.88;2.30;;;;;;;;;;5077439;28;20074;-32
2024/03/26 12:52:18;;;;;;;18.05;2.88;;;;;;;;;;5077347;28;20489;-34
2024/03/26 12:54:45;;;;;;;15.02;2.17;;;;;;;;;;5082507;28;20066;-34
2024/03/26 12:57:12;;;;;;;17.75;2.65;;;;;;;;;;5084953;28;20076;-34
2024/03/26 12:59:39;;;;;;;22.70;2.97;;;;;;;;;;5083400;28;20426;-34
2024/03/26 13:02:07;;;;;;;18.67;2.50;;;;;;;;;;5083459;28;20676;-33
2024/03/26 13:04:35;;;;;;;19.33;2.65;;;;;;;;;;5084688;28;20550;-32
2024/03/26 13:07:02;;;;;;;13.00;2.20;;;;;;;;;;5083692;28;20035;-32
2024/03/26 13:09:29;;;;;;;19.30;2.40;;;;;;;;;;5082549;28;20438;-34
2024/03/26 13:11:56;;;;;;;14.15;1.92;;;;;;;;;;5080201;28;20012;-32
2024/03/26 13:14:22;;;;;;;18.17;2.40;;;;;;;;;;5083322;28;20031;-34
2024/03/26 13:16:49;;;;;;;11.68;2.20;;;;;;;;;;5084460;28;20074;-34
2024/03/26 13:19:16;;;;;;;17.10;2.50;;;;;;;;;;5082566;28;20028;-32
2024/03/26 13:21:45;;;;;;;20.88;2.28;;;;;;;;;;5083291;28;20078;-35
2024/03/26 13:24:12;;;;;;;19.02;2.55;;;;;;;;;;5072974;28;20040;-34
2024/03/26 13:26:38;;;;;;;17.17;2.60;;;;;;;;;;5078653;28;20471;-34
2024/03/26 13:29:05;;;;;;;26.40;2.58;;;;;;;;;;5073616;28;20021;-34
2024/03/26 13:31:32;;;;;;;38.33;3.30;;;;;;;;;;5067473;28;20016;-34
2024/03/26 13:33:59;;;;;;;30.88;2.45;;;;;;;;;;5060007;28;20037;-33
2024/03/26 13:36:26;;;;;;;28.52;2.40;;;;;;;;;;5071905;28;20394;-33
2024/03/26 13:38:53;;;;;;;15.27;2.28;;;;;;;;;;5072804;28;20035;-35
2024/03/26 13:41:20;;;;;;;27.88;2.88;;;;;;;;;;5073381;28;20504;-33
2024/03/26 13:43:47;;;;;;;15.80;2.30;;;;;;;;;;5073234;28;20028;-33
2024/03/26 13:46:14;;;;;;;21.42;3.10;;;;;;;;;;5073172;28;20027;-33
2024/03/26 13:48:41;;;;;;;23.17;2.80;;;;;;;;;;5077512;28;20040;-33
2024/03/26 13:51:09;;;;;;;15.43;2.03;;;;;;;;;;5090230;28;20029;-34
2024/03/26 13:53:36;;;;;;;13.60;2.60;;;;;;;;;;5082934;28;20028;-34
2024/03/26 13:56:03;;;;;;;18.15;2.75;;;;;;;;;;5083254;28;20056;-35
2024/03/26 13:58:30;;;;;;;19.25;4.35;;;;;;;;;;5079016;28;20024;-35
2024/03/26 14:00:57;;;;;;;25.85;7.45;;;;;;;;;;5082702;28;20123;-34
2024/03/26 14:03:24;;;;;;;34.17;8.05;;;;;;;;;;5072396;28;20013;-35
2024/03/26 14:05:51;;;;;;;34.15;9.45;;;;;;;;;;5079315;28;20138;-33
2024/03/26 14:08:18;;;;;;;48.95;10.40;;;;;;;;;;5081119;28;20523;-33
2024/03/26 14:10:45;;;;;;;45.90;9.93;;;;;;;;;;5078141;28;20475;-34
2024/03/26 14:13:12;;;;;;;54.03;10.27;;;;;;;;;;5072679;28;20392;-33
2024/03/26 14:15:39;;;;;;;38.80;8.85;;;;;;;;;;5072793;28;20020;-33
2024/03/26 14:18:06;;;;;;;44.42;10.05;;;;;;;;;;5077925;28;20034;-34
2024/03/26 14:20:33;;;;;;;44.65;8.80;;;;;;;;;;5091099;28;20531;-34
2024/03/26 14:23:00;;;;;;;38.45;8.48;;;;;;;;;;5092956;28;20035;-34
2024/03/26 14:25:27;;;;;;;40.10;7.43;;;;;;;;;;5086640;28;20103;-34
2024/03/26 14:27:54;;;;;;;34.42;7.35;;;;;;;;;;5083610;28;20056;-35
2024/03/26 14:30:23;;;;;;;28.48;7.18;;;;;;;;;;5080887;28;20470;-34
2024/03/26 14:32:50;;;;;;;36.50;7.60;;;;;;;;;;5081984;28;20027;-35
2024/03/26 14:35:17;;;;;;;23.83;6.05;;;;;;;;;;5082830;28;20368;-35
2024/03/26 14:37:48;;;;;;;23.85;5.80;;;;;;;;;;5084433;28;20081;-35